createdAt,value
2019-03-29T00:05:08.616Z,9.47
2019-03-29T00:07:49.446Z,10.30
2019-03-29T00:10:42.090Z,10.47
2019-03-29T00:13:32.347Z,9.33
2019-03-29T00:16:22.134Z,9.03
2019-03-29T00:18:54.373Z,10.27
2019-03-29T00:21:28.256Z,9.13
2019-03-29T00:24:18.231Z,9.57
2019-03-29T00:27:08.373Z,10.40
2019-03-29T00:29:51.377Z,9.10
2019-03-29T00:32:32.894Z,12.13
2019-03-29T00:38:04.993Z,11.30
2019-03-29T00:40:56.712Z,10.03
2019-03-29T00:43:47.760Z,9.53
2019-03-29T00:46:18.913Z,13.23
2019-03-29T00:48:53.668Z,12.37
2019-03-29T00:51:25.186Z,11.17
2019-03-29T00:53:56.880Z,12.03
2019-03-29T00:57:06.615Z,14.63
2019-03-29T00:59:56.446Z,9.20
2019-03-29T01:02:47.007Z,9.07
2019-03-29T01:05:55.586Z,10.50
2019-03-29T01:08:45.906Z,9.50
2019-03-29T01:11:38.185Z,13.80
2019-03-29T01:14:20.306Z,10.73
2019-03-29T01:17:03.795Z,12.77
2019-03-29T01:19:46.062Z,10.63
2019-03-29T01:22:29.616Z,11.43
2019-03-29T01:28:08.684Z,12.87
2019-03-29T01:30:40.981Z,14.00
2019-03-29T01:33:32.081Z,9.70
2019-03-29T01:36:25.236Z,10.67
2019-03-29T01:39:18.627Z,12.37
2019-03-29T01:42:09.013Z,8.97
2019-03-29T01:44:59.677Z,11.63
2019-03-29T01:47:52.453Z,11.43
2019-03-29T01:50:42.850Z,10.87
2019-03-29T01:53:33.288Z,11.10
2019-03-29T01:56:23.457Z,10.93
2019-03-29T01:59:13.651Z,10.00
2019-03-29T02:01:45.282Z,10.90
2019-03-29T02:04:35.212Z,12.70
2019-03-29T02:07:25.099Z,11.30
2019-03-29T02:10:15.258Z,12.13
2019-03-29T02:12:57.779Z,12.63
2019-03-29T02:15:38.649Z,10.37
2019-03-29T02:18:10.213Z,14.90
2019-03-29T02:21:00.110Z,10.53
2019-03-29T02:23:50.277Z,11.27
2019-03-29T02:26:40.413Z,12.23
2019-03-29T02:29:44.890Z,15.40
2019-03-29T02:32:22.175Z,11.10
2019-03-29T02:34:54.123Z,14.87
2019-03-29T02:37:44.077Z,11.90
2019-03-29T02:40:33.936Z,9.57
2019-03-29T02:43:24.507Z,12.30
2019-03-29T02:46:16.195Z,11.13
2019-03-29T02:48:52.347Z,11.20
2019-03-29T02:54:45.205Z,11.47
2019-03-29T02:57:35.442Z,12.53
2019-03-29T03:00:25.323Z,14.73
2019-03-29T03:03:15.483Z,14.37
2019-03-29T03:06:05.375Z,16.40
2019-03-29T03:08:46.120Z,14.53
2019-03-29T03:11:36.022Z,15.10
2019-03-29T03:15:13.499Z,13.57
2019-03-29T03:17:59.564Z,14.93
2019-03-29T03:21:30.777Z,15.20
2019-03-29T03:24:21.772Z,14.10
2019-03-29T03:27:11.942Z,18.03
2019-03-29T03:30:02.610Z,16.73
2019-03-29T03:36:03.804Z,18.63
2019-03-29T03:38:54.056Z,15.73
2019-03-29T03:41:53.367Z,16.83
2019-03-29T03:45:04.087Z,16.40
2019-03-29T03:48:05.308Z,16.50
2019-03-29T03:50:55.420Z,18.03
2019-03-29T03:53:45.426Z,18.07
2019-03-29T03:56:35.933Z,19.50
2019-03-29T03:59:27.008Z,16.27
2019-03-29T04:02:17.159Z,18.30
2019-03-29T04:05:07.285Z,17.20
2019-03-29T04:07:58.051Z,18.07
2019-03-29T04:13:59.780Z,19.67
2019-03-29T04:16:50.018Z,16.40
2019-03-29T04:26:27.029Z,19.57
2019-03-29T04:29:35.520Z,18.73
2019-03-29T04:40:05.807Z,20.73
2019-03-29T04:42:33.217Z,18.97
2019-03-29T04:47:58.552Z,17.87
2019-03-29T04:50:37.795Z,21.97
2019-03-29T04:53:45.156Z,20.37
2019-03-29T05:05:41.755Z,22.23
2019-03-29T05:08:36.208Z,20.00
2019-03-29T05:14:35.566Z,19.53
2019-03-29T05:17:30.704Z,21.63
2019-03-29T05:20:46.140Z,20.60
2019-03-29T05:23:32.605Z,21.33
2019-03-29T05:26:25.472Z,22.40
2019-03-29T05:32:47.656Z,23.87
2019-03-29T05:35:38.768Z,21.80
2019-03-29T05:38:10.816Z,26.73
2019-03-29T05:41:04.834Z,24.70
2019-03-29T05:46:31.641Z,24.97
2019-03-29T05:49:31.532Z,23.53
2019-03-29T05:55:32.507Z,29.07
2019-03-29T05:58:30.240Z,21.53
2019-03-29T06:01:19.221Z,23.97
2019-03-29T06:07:28.474Z,24.17
2019-03-29T06:10:21.762Z,25.67
2019-03-29T06:12:53.207Z,24.90
2019-03-29T06:15:40.527Z,29.37
2019-03-29T06:18:31.522Z,23.23
2019-03-29T06:24:53.286Z,20.40
2019-03-29T06:31:15.568Z,22.97
2019-03-29T06:33:59.014Z,23.70
2019-03-29T06:36:40.544Z,27.63
2019-03-29T06:39:43.029Z,24.53
2019-03-29T06:42:42.503Z,24.03
2019-03-29T06:45:46.864Z,26.73
2019-03-29T06:48:06.509Z,19.20
2019-03-29T06:50:59.232Z,22.97
2019-03-29T06:53:52.839Z,23.07
2019-03-29T06:56:43.426Z,22.07
2019-03-29T06:59:33.710Z,23.13
2019-03-29T07:02:05.340Z,21.10
2019-03-29T07:05:17.301Z,19.57
2019-03-29T07:08:13.140Z,20.73
2019-03-29T07:11:18.169Z,19.37
2019-03-29T07:27:14.937Z,19.83
2019-03-29T07:36:39.679Z,16.77
2019-03-29T07:40:00.732Z,17.10
2019-03-29T07:46:11.004Z,15.07
2019-03-29T07:49:19.810Z,14.17
2019-03-29T07:58:31.108Z,11.57
2019-03-29T08:08:50.186Z,10.03
2019-03-29T08:17:49.221Z,10.27
2019-03-29T08:23:43.550Z,10.20
2019-03-29T08:27:04.679Z,9.07
2019-03-29T08:33:23.814Z,10.13
2019-03-29T08:36:32.327Z,10.93
2019-03-29T08:39:28.091Z,9.87
2019-03-29T08:42:36.489Z,11.17
2019-03-29T08:45:26.463Z,9.73
2019-03-29T08:51:23.600Z,9.03
2019-03-29T08:54:21.351Z,10.30
2019-03-29T08:57:11.459Z,10.60
2019-03-29T09:03:14.884Z,10.90
2019-03-29T09:06:32.066Z,8.90
2019-03-29T09:09:22.203Z,9.30
2019-03-29T09:12:14.465Z,7.93
2019-03-29T09:17:26.008Z,10.77
2019-03-29T09:20:25.090Z,8.90
2019-03-29T09:26:10.089Z,7.07
2019-03-29T09:28:41.569Z,7.73
2019-03-29T09:31:12.797Z,7.83
2019-03-29T09:33:44.164Z,6.87
2019-03-29T09:36:34.944Z,7.70
2019-03-29T09:39:24.887Z,6.37
2019-03-29T09:42:27.716Z,7.17
2019-03-29T09:45:06.457Z,7.17
2019-03-29T09:47:40.507Z,7.97
2019-03-29T09:50:11.354Z,8.93
2019-03-29T09:53:02.284Z,7.20
2019-03-29T09:55:53.481Z,7.23
2019-03-29T09:58:25.313Z,7.97
2019-03-29T10:00:56.684Z,7.33
2019-03-29T10:03:46.646Z,6.70
2019-03-29T10:06:17.902Z,6.37
2019-03-29T10:09:08.184Z,6.03
2019-03-29T10:11:49.195Z,6.33
2019-03-29T10:14:20.646Z,5.73
2019-03-29T10:17:10.522Z,6.77
2019-03-29T10:20:00.414Z,6.07
2019-03-29T10:22:31.786Z,4.90
2019-03-29T10:25:21.831Z,5.63
2019-03-29T10:27:52.993Z,4.83
2019-03-29T10:30:46.448Z,7.07
2019-03-29T10:33:17.034Z,5.03
2019-03-29T10:36:06.856Z,5.07
2019-03-29T10:38:38.281Z,4.47
2019-03-29T10:41:29.499Z,7.27
2019-03-29T10:44:00.901Z,4.90
2019-03-29T10:46:50.700Z,4.90
2019-03-29T10:49:22.192Z,4.93
2019-03-29T10:52:12.185Z,3.60
2019-03-29T10:54:49.664Z,3.43
2019-03-29T10:58:20.127Z,4.33
2019-03-29T11:01:05.720Z,4.17
2019-03-29T11:03:10.414Z,5.20
2019-03-29T11:06:02.732Z,4.00
2019-03-29T11:11:56.566Z,4.70
2019-03-29T11:21:41.099Z,4.37
2019-03-29T12:00:16.237Z,7.03
2019-03-29T12:18:49.540Z,4.60
2019-03-29T12:21:25.046Z,5.47
2019-03-29T12:23:57.194Z,5.03
2019-03-29T12:26:28.749Z,7.10
2019-03-29T12:28:59.958Z,5.53
2019-03-29T12:31:31.537Z,4.80
2019-03-29T12:34:02.938Z,4.90
2019-03-29T12:36:34.270Z,4.20
2019-03-29T12:39:07.935Z,7.03
2019-03-29T12:41:42.280Z,5.30
2019-03-29T12:44:17.817Z,6.60
2019-03-29T12:46:55.134Z,5.77
2019-03-29T12:49:27.143Z,5.70
2019-03-29T12:51:58.956Z,5.20
2019-03-29T12:54:30.387Z,7.40
2019-03-29T12:57:02.348Z,6.97
2019-03-29T12:59:50.983Z,5.30
2019-03-29T13:02:24.552Z,5.30
2019-03-29T13:05:09.355Z,5.90
2019-03-29T13:07:43.131Z,5.60
2019-03-29T13:10:16.306Z,4.80
2019-03-29T13:12:48.991Z,4.57
2019-03-29T13:15:20.749Z,5.67
2019-03-29T13:17:53.024Z,6.30
2019-03-29T13:20:25.903Z,5.10
2019-03-29T13:23:04.413Z,5.43
2019-03-29T13:25:37.244Z,5.40
2019-03-29T13:28:09.795Z,5.73
2019-03-29T13:30:41.903Z,5.50
2019-03-29T13:33:14.306Z,6.33
2019-03-29T13:35:51.169Z,4.83
2019-03-29T13:38:22.557Z,5.67
2019-03-29T13:40:57.200Z,4.43
2019-03-29T13:43:29.086Z,5.27
2019-03-29T13:46:03.376Z,6.07
2019-03-29T13:48:35.703Z,5.93
2019-03-29T13:51:06.925Z,6.17
2019-03-29T13:53:38.117Z,7.87
2019-03-29T13:56:09.725Z,6.07
2019-03-29T13:58:41.223Z,6.73
2019-03-29T14:01:12.371Z,7.67
2019-03-29T14:03:43.750Z,6.53
2019-03-29T14:06:14.986Z,7.10
2019-03-29T14:08:46.548Z,7.57
2019-03-29T14:11:17.891Z,6.50
2019-03-29T14:13:50.549Z,7.13
2019-03-29T14:16:22.311Z,7.27
2019-03-29T14:18:54.374Z,7.17
2019-03-29T14:21:28.465Z,7.07
2019-03-29T14:24:00.968Z,6.10
2019-03-29T14:26:32.181Z,7.10
2019-03-29T14:29:03.381Z,7.57
2019-03-29T14:31:34.755Z,6.17
2019-03-29T14:34:06.492Z,6.83
2019-03-29T14:36:38.016Z,6.70
2019-03-29T14:39:09.463Z,6.83
2019-03-29T14:41:40.670Z,7.70
2019-03-29T14:44:13.277Z,7.53
2019-03-29T14:46:44.516Z,7.87
2019-03-29T14:49:15.940Z,7.10
2019-03-29T14:51:49.648Z,9.00
2019-03-29T14:54:21.869Z,6.37
2019-03-29T14:56:53.127Z,9.57
2019-03-29T14:59:24.771Z,5.97
2019-03-29T15:01:56.404Z,7.23
2019-03-29T15:04:27.719Z,7.07
2019-03-29T15:06:58.945Z,7.00
2019-03-29T15:09:31.955Z,6.47
2019-03-29T15:12:06.734Z,7.20
2019-03-29T15:14:36.850Z,7.33
2019-03-29T15:17:08.111Z,8.10
2019-03-29T15:19:39.277Z,7.93
2019-03-29T15:22:10.475Z,8.07
2019-03-29T15:24:41.950Z,7.57
2019-03-29T15:27:13.137Z,8.00
2019-03-29T15:29:44.353Z,7.60
2019-03-29T15:32:15.570Z,8.00
2019-03-29T15:34:46.878Z,8.90
2019-03-29T15:37:18.186Z,8.17
2019-03-29T15:39:49.825Z,7.37
2019-03-29T15:42:22.120Z,9.20
2019-03-29T15:44:53.390Z,7.60
2019-03-29T15:47:31.989Z,7.77
2019-03-29T15:50:03.663Z,9.27
2019-03-29T15:52:34.900Z,9.87
2019-03-29T15:55:11.093Z,8.33
2019-03-29T15:57:40.880Z,7.30
2019-03-29T16:00:12.667Z,8.27
2019-03-29T16:02:43.872Z,8.43
2019-03-29T16:05:16.051Z,7.47
2019-03-29T16:07:47.581Z,9.07
2019-03-29T16:10:19.156Z,8.13
2019-03-29T16:12:51.018Z,9.87
2019-03-29T16:15:33.936Z,7.77
2019-03-29T16:17:56.342Z,7.83
2019-03-29T16:20:27.609Z,7.90
2019-03-29T16:22:58.906Z,8.67
2019-03-29T16:25:34.137Z,8.07
2019-03-29T16:28:05.510Z,8.20
2019-03-29T16:30:37.428Z,8.87
2019-03-29T16:33:11.116Z,10.67
2019-03-29T16:35:42.538Z,9.93
2019-03-29T16:38:14.378Z,9.47
2019-03-29T16:40:47.442Z,9.77
2019-03-29T16:43:18.735Z,10.70
2019-03-29T16:45:52.150Z,9.10
2019-03-29T16:48:23.680Z,11.60
2019-03-29T16:50:54.987Z,10.27
2019-03-29T16:53:26.265Z,9.27
2019-03-29T16:55:57.402Z,9.50
2019-03-29T16:58:29.158Z,8.17
2019-03-29T17:01:00.538Z,10.07
2019-03-29T17:03:32.757Z,11.33
2019-03-29T17:06:03.974Z,10.77
2019-03-29T17:08:36.255Z,8.03
2019-03-29T17:11:07.596Z,12.63
2019-03-29T17:13:40.288Z,9.17
2019-03-29T17:16:11.493Z,9.10
2019-03-29T17:18:42.712Z,7.63
2019-03-29T17:21:15.244Z,9.27
2019-03-29T17:23:46.865Z,9.70
2019-03-29T17:26:21.031Z,11.80
2019-03-29T17:28:52.753Z,9.30
2019-03-29T17:31:25.146Z,8.27
2019-03-29T17:33:57.825Z,8.80
2019-03-29T17:36:29.568Z,10.10
2019-03-29T17:39:00.951Z,8.63
2019-03-29T17:41:32.837Z,11.27
2019-03-29T17:44:05.845Z,9.77
2019-03-29T17:46:37.374Z,9.73
2019-03-29T17:49:25.106Z,9.63
2019-03-29T17:51:56.326Z,8.00
2019-03-29T17:54:27.999Z,10.60
2019-03-29T17:57:09.228Z,11.37
2019-03-29T17:59:40.564Z,8.40
2019-03-29T18:02:11.990Z,10.80
2019-03-29T18:04:43.806Z,8.53
2019-03-29T18:07:15.636Z,7.97
2019-03-29T18:09:47.451Z,11.57
2019-03-29T18:12:18.665Z,9.33
2019-03-29T18:14:50.208Z,8.33
2019-03-29T18:17:21.790Z,9.47
2019-03-29T18:19:55.664Z,9.23
2019-03-29T18:22:26.924Z,13.77
2019-03-29T18:24:58.136Z,13.97
2019-03-29T18:27:30.611Z,17.07
2019-03-29T18:30:02.435Z,11.67
2019-03-29T18:32:33.747Z,14.83
2019-03-29T18:35:07.375Z,15.57
2019-03-29T18:37:39.094Z,12.47
2019-03-29T18:40:20.292Z,11.43
2019-03-29T18:42:51.501Z,14.50
2019-03-29T18:45:22.766Z,11.43
2019-03-29T18:47:54.454Z,17.87
2019-03-29T18:50:25.816Z,13.10
2019-03-29T18:52:57.099Z,11.60
2019-03-29T18:55:28.523Z,15.73
2019-03-29T18:58:00.017Z,11.30
2019-03-29T19:00:33.597Z,16.80
2019-03-29T19:03:06.195Z,12.10
2019-03-29T19:05:41.008Z,12.33
2019-03-29T19:08:12.155Z,11.90
2019-03-29T19:10:43.376Z,10.50
2019-03-29T19:13:15.671Z,10.47
2019-03-29T19:15:46.924Z,13.00
2019-03-29T19:18:18.189Z,11.30
2019-03-29T19:20:50.082Z,10.10
2019-03-29T19:23:21.326Z,9.97
2019-03-29T19:25:52.815Z,9.87
2019-03-29T19:28:24.023Z,12.57
2019-03-29T19:30:55.627Z,11.93
2019-03-29T19:33:27.029Z,11.23
2019-03-29T19:35:58.187Z,11.70
2019-03-29T19:38:30.920Z,9.40
2019-03-29T19:41:02.343Z,13.63
2019-03-29T19:43:34.727Z,20.60
2019-03-29T19:46:06.368Z,14.20
2019-03-29T19:48:37.841Z,10.73
2019-03-29T19:51:10.582Z,13.23
2019-03-29T19:53:41.895Z,15.07
2019-03-29T19:56:13.501Z,11.53
2019-03-29T19:58:46.176Z,13.97
2019-03-29T20:01:17.877Z,14.30
2019-03-29T20:04:02.546Z,15.47
2019-03-29T20:06:33.896Z,17.47
2019-03-29T20:09:09.561Z,11.50
2019-03-29T20:11:44.676Z,14.30
2019-03-29T20:14:18.279Z,13.50
2019-03-29T20:16:56.155Z,13.63
2019-03-29T20:19:49.834Z,13.80
2019-03-29T20:22:22.012Z,13.47
2019-03-29T20:24:54.068Z,13.73
2019-03-29T20:27:38.063Z,14.23
2019-03-29T20:30:24.891Z,14.20
2019-03-29T20:36:00.904Z,14.33
2019-03-29T20:38:32.909Z,14.50
2019-03-29T20:41:08.995Z,16.07
2019-03-29T20:43:40.430Z,14.20
2019-03-29T20:46:13.369Z,14.53
2019-03-29T20:48:45.068Z,15.17
2019-03-29T20:51:20.095Z,18.73
2019-03-29T20:53:52.183Z,17.43
2019-03-29T20:56:29.182Z,14.93
2019-03-29T20:59:10.396Z,15.37
2019-03-29T21:01:52.847Z,17.87
2019-03-29T21:04:29.476Z,15.57
2019-03-29T21:07:04.314Z,18.07
2019-03-29T21:09:38.740Z,16.93
2019-03-29T21:12:28.796Z,16.70
2019-03-29T21:15:06.612Z,18.33
2019-03-29T21:17:56.033Z,18.73
2019-03-29T21:20:18.240Z,17.23
2019-03-29T21:23:01.513Z,17.20
2019-03-29T21:25:34.392Z,21.17
2019-03-29T21:28:06.324Z,15.37
2019-03-29T21:30:41.348Z,17.73
2019-03-29T21:33:16.767Z,18.10
2019-03-29T21:35:49.617Z,19.23
2019-03-29T21:38:21.969Z,17.50
2019-03-29T21:40:53.417Z,17.73
2019-03-29T21:43:26.271Z,23.77
2019-03-29T21:45:57.624Z,17.80
2019-03-29T21:48:29.379Z,16.70
2019-03-29T21:51:01.116Z,17.90
2019-03-29T21:53:33.353Z,16.90
2019-03-29T21:56:04.922Z,15.53
2019-03-29T21:58:36.986Z,15.77
2019-03-29T22:01:08.800Z,17.00
2019-03-29T22:03:41.704Z,19.60
2019-03-29T22:55:49.704Z,17.87
2019-03-29T22:58:23.944Z,20.13
2019-03-29T23:00:59.256Z,18.30
2019-03-29T23:03:32.902Z,18.97
2019-03-29T23:06:06.874Z,18.97
2019-03-29T23:08:38.451Z,17.70
2019-03-29T23:11:09.970Z,19.33
2019-03-29T23:13:42.883Z,15.70
2019-03-29T23:16:19.092Z,18.23
2019-03-29T23:18:50.468Z,18.37
2019-03-29T23:21:22.100Z,17.40
2019-03-29T23:23:54.608Z,18.63
2019-03-29T23:26:26.192Z,21.60
2019-03-29T23:28:57.682Z,19.23
2019-03-29T23:31:29.422Z,23.67
2019-03-29T23:34:01.688Z,20.77
2019-03-29T23:36:34.037Z,22.50
2019-03-29T23:39:06.827Z,21.57
2019-03-29T23:41:39.437Z,24.00
2019-03-29T23:44:10.870Z,23.63
2019-03-29T23:46:42.579Z,22.87
2019-03-29T23:49:20.838Z,20.10
2019-03-29T23:51:47.214Z,25.33
2019-03-29T23:54:18.447Z,22.27
2019-03-29T23:57:03.023Z,19.77
2019-03-29T23:59:34.940Z,24.47
